Time;durP1;ratioP1;P1;durP2;ratioP2;P2;SDS_P1;SDS_P2;PMS_P1;PMS_P2;Temp;Humidity;BMP_temperature;BMP_pressure;BME280_temperature;BME280_humidity;BME280_pressure;Samples;Min_cycle;Max_cycle;Signal;HPM_P1;HPM_P2
2021/11/25 00:00:08;;;;;;;11.10;7.95;;;16.50;90.10;;;;;;4897294;29;20116;-51
2021/11/25 00:02:33;;;;;;;12.88;8.63;;;16.40;62.50;;;;;;4897339;29;20099;-48
2021/11/25 00:04:59;;;;;;;13.27;9.15;;;16.30;62.40;;;;;;4897653;29;20119;-45
2021/11/25 00:07:25;;;;;;;14.63;8.50;;;16.20;62.40;;;;;;4897830;29;20277;-44
2021/11/25 00:09:51;;;;;;;10.45;8.00;;;16.20;62.50;;;;;;4897742;29;20437;-44
2021/11/25 00:12:17;;;;;;;12.32;9.05;;;16.50;90.30;;;;;;4897665;29;20024;-45
2021/11/25 00:14:43;;;;;;;12.80;8.93;;;16.20;62.50;;;;;;4897713;29;20028;-43
2021/11/25 00:17:09;;;;;;;11.43;8.15;;;16.50;90.20;;;;;;4897691;29;20084;-43
2021/11/25 00:19:35;;;;;;;12.68;8.18;;;16.90;90.70;;;;;;4897557;29;20033;-44
2021/11/25 00:22:01;;;;;;;13.02;9.05;;;16.10;62.50;;;;;;4897549;29;20098;-43
2021/11/25 00:24:26;;;;;;;12.77;9.07;;;16.20;62.50;;;;;;4897963;29;20155;-44
2021/11/25 00:26:52;;;;;;;12.18;8.68;;;16.10;62.50;;;;;;4897222;29;20082;-44
2021/11/25 00:29:18;;;;;;;11.93;8.43;;;16.40;90.30;;;;;;4897359;29;20033;-44
2021/11/25 00:31:43;;;;;;;14.63;9.48;;;16.00;62.40;;;;;;4897189;29;20032;-44
2021/11/25 00:34:09;;;;;;;10.10;7.45;;;16.30;90.20;;;;;;4897341;29;20036;-44
2021/11/25 00:36:34;;;;;;;12.90;8.60;;;16.40;90.30;;;;;;4897401;29;20028;-43
2021/11/25 00:39:00;;;;;;;12.73;9.13;;;16.20;62.60;;;;;;4897176;29;20037;-44
2021/11/25 00:41:26;;;;;;;12.00;8.93;;;16.60;62.80;;;;;;4897326;29;20464;-43
2021/11/25 00:43:52;;;;;;;12.23;9.02;;;16.10;62.50;;;;;;4897299;29;20028;-44
2021/11/25 00:46:18;;;;;;;16.25;8.98;;;16.30;90.30;;;;;;4897292;29;20179;-43
2021/11/25 00:48:43;;;;;;;12.05;8.75;;;16.00;63.20;;;;;;4896996;29;20039;-44
2021/11/25 00:51:10;;;;;;;14.75;9.52;;;16.30;90.20;;;;;;4896922;29;20021;-44
2021/11/25 00:53:36;;;;;;;13.02;8.82;;;16.00;62.60;;;;;;4897005;29;20035;-43
2021/11/25 00:56:02;;;;;;;12.25;8.57;;;16.00;62.50;;;;;;4897175;29;20032;-44
2021/11/25 00:58:27;;;;;;;13.15;9.52;;;16.40;90.40;;;;;;4896816;29;20040;-43
2021/11/25 01:00:53;;;;;;;12.52;8.85;;;16.00;62.60;;;;;;4897174;29;20056;-44
2021/11/25 01:03:19;;;;;;;11.90;8.82;;;16.30;90.20;;;;;;4896650;29;20444;-44
2021/11/25 01:05:46;;;;;;;11.57;8.57;;;16.10;62.60;;;;;;4897182;29;20076;-44
2021/11/25 01:08:11;;;;;;;11.75;8.43;;;16.00;62.60;;;;;;4897070;29;20052;-43
2021/11/25 01:10:37;;;;;;;12.98;8.88;;;16.20;90.20;;;;;;4896893;29;20116;-43
2021/11/25 01:13:03;;;;;;;12.90;8.70;;;16.00;62.60;;;;;;4898492;29;20407;-43
2021/11/25 01:15:32;;;;;;;11.80;8.52;;;16.30;90.40;;;;;;4900500;29;20029;-43
2021/11/25 01:18:04;;;;;;;11.52;8.43;;;15.90;62.50;;;;;;4900468;29;20476;-44
2021/11/25 01:20:30;;;;;;;12.10;8.27;;;16.00;90.30;;;;;;4900864;29;20107;-43
2021/11/25 01:22:58;;;;;;;11.73;8.13;;;15.90;62.50;;;;;;4900759;29;20017;-44
2021/11/25 01:25:23;;;;;;;11.70;8.13;;;16.20;90.30;;;;;;4900419;29;20048;-43
2021/11/25 01:27:49;;;;;;;13.45;8.98;;;15.90;62.60;;;;;;4900670;29;20052;-44
2021/11/25 01:30:15;;;;;;;11.60;8.32;;;15.90;62.60;;;;;;4900525;29;20157;-44
2021/11/25 01:32:41;;;;;;;12.40;8.50;;;15.80;62.50;;;;;;4900315;29;20028;-43
2021/11/25 01:35:07;;;;;;;11.35;8.43;;;15.90;62.60;;;;;;4900477;29;20031;-44
2021/11/25 01:37:35;;;;;;;12.85;8.93;;;16.10;90.30;;;;;;4900450;29;20503;-49
2021/11/25 01:40:01;;;;;;;9.75;7.50;;;15.80;62.60;;;;;;4900416;29;20058;-49
2021/11/25 01:42:26;;;;;;;11.90;8.50;;;16.10;90.30;;;;;;4900158;29;20476;-49
2021/11/25 01:44:52;;;;;;;11.90;8.75;;;15.80;62.60;;;;;;4900050;29;20115;-48
2021/11/25 01:47:17;;;;;;;12.80;8.27;;;15.80;62.60;;;;;;4900153;29;20028;-50
2021/11/25 01:49:43;;;;;;;11.32;7.97;;;16.20;90.80;;;;;;4899959;29;20035;-47
2021/11/25 01:52:08;;;;;;;11.77;8.63;;;15.80;62.60;;;;;;4899875;29;20540;-49
2021/11/25 01:54:34;;;;;;;13.50;8.65;;;15.80;90.30;;;;;;4899888;29;20111;-49
2021/11/25 01:57:00;;;;;;;13.80;9.00;;;15.80;62.60;;;;;;4899796;29;20088;-49
2021/11/25 01:59:26;;;;;;;14.27;9.20;;;16.00;62.10;;;;;;4899679;29;20045;-49
2021/11/25 02:01:51;;;;;;;11.48;8.18;;;15.70;62.50;;;;;;4899537;29;20021;-49
2021/11/25 02:04:17;;;;;;;12.30;8.35;;;15.90;62.60;;;;;;4899702;29;20043;-48
2021/11/25 02:06:43;;;;;;;12.68;8.30;;;15.80;90.30;;;;;;4899905;29;20032;-48
2021/11/25 02:09:10;;;;;;;10.30;8.32;;;15.80;62.50;;;;;;4899615;29;20028;-49
2021/11/25 02:11:37;;;;;;;11.73;8.43;;;16.00;90.20;;;;;;4899812;29;20025;-49
2021/11/25 02:14:03;;;;;;;11.82;8.38;;;15.70;62.50;;;;;;4899619;29;20120;-49
2021/11/25 02:16:29;;;;;;;12.18;9.05;;;16.00;90.30;;;;;;4899543;29;20029;-49
2021/11/25 02:18:58;;;;;;;11.43;7.93;;;15.40;62.40;;;;;;4899427;29;20048;-49
2021/11/25 02:21:28;;;;;;;10.97;7.80;;;16.30;62.80;;;;;;4899672;29;20020;-48
2021/11/25 02:23:53;;;;;;;9.93;8.27;;;15.90;62.50;;;;;;4899423;29;20120;-48
2021/11/25 02:26:19;;;;;;;10.05;7.47;;;15.70;62.50;;;;;;4899283;29;20487;-48
2021/11/25 02:28:45;;;;;;;10.68;8.10;;;15.80;90.30;;;;;;4899315;29;20096;-49
2021/11/25 02:31:10;;;;;;;12.23;8.55;;;15.70;62.50;;;;;;4899247;29;20088;-49
2021/11/25 02:33:41;;;;;;;11.73;7.97;;;16.00;90.10;;;;;;4899290;29;20036;-48
2021/11/25 02:36:08;;;;;;;11.52;8.07;;;15.60;62.40;;;;;;4899284;29;20025;-50
2021/11/25 02:38:35;;;;;;;10.93;8.00;;;15.70;62.50;;;;;;4898959;29;20052;-48
2021/11/25 02:41:00;;;;;;;10.98;7.93;;;15.70;62.60;;;;;;4899380;29;20021;-49
2021/11/25 02:43:29;;;;;;;12.05;8.00;;;15.70;62.50;;;;;;4899296;29;20487;-49
2021/11/25 02:46:00;;;;;;;12.00;7.53;;;15.80;90.30;;;;;;4899009;29;20107;-49
2021/11/25 02:48:36;;;;;;;9.75;7.55;;;15.80;62.60;;;;;;4898970;29;20488;-49
2021/11/25 02:51:02;;;;;;;10.15;7.88;;;15.70;62.60;;;;;;4898974;29;20025;-50
2021/11/25 02:53:31;;;;;;;10.57;7.63;;;15.60;62.60;;;;;;4899125;29;20024;-48
2021/11/25 02:55:59;;;;;;;11.02;7.90;;;16.00;90.40;;;;;;4898859;29;20035;-48
2021/11/25 02:58:26;;;;;;;11.18;8.32;;;15.70;90.20;;;;;;4898708;29;20071;-48
2021/11/25 03:00:55;;;;;;;10.07;7.28;;;15.60;90.10;;;;;;4898707;29;20044;-49
2021/11/25 03:03:20;;;;;;;13.45;7.90;;;16.10;62.80;;;;;;4898491;29;20056;-48
2021/11/25 03:05:48;;;;;;;8.70;6.95;;;15.90;90.10;;;;;;4898611;29;20036;-47
2021/11/25 03:08:15;;;;;;;10.35;7.70;;;15.80;62.60;;;;;;4898860;29;20395;-49
2021/11/25 03:10:43;;;;;;;10.95;7.20;;;15.70;62.60;;;;;;4898593;29;20029;-51
2021/11/25 03:13:11;;;;;;;10.45;7.55;;;15.70;62.60;;;;;;4898564;29;20033;-49
2021/11/25 03:15:38;;;;;;;11.48;7.80;;;15.60;62.50;;;;;;4898411;29;20033;-48
2021/11/25 03:18:05;;;;;;;11.60;8.13;;;15.90;90.90;;;;;;4898561;29;20041;-50
2021/11/25 03:20:31;;;;;;;9.35;6.93;;;15.60;62.50;;;;;;4898288;29;20021;-49
2021/11/25 03:22:57;;;;;;;11.43;7.80;;;15.70;90.20;;;;;;4898202;29;20031;-49
2021/11/25 03:25:23;;;;;;;10.85;7.43;;;15.60;62.50;;;;;;4898487;29;20048;-49
2021/11/25 03:27:51;;;;;;;8.85;6.78;;;15.90;90.20;;;;;;4898473;29;20057;-49
2021/11/25 03:30:17;;;;;;;10.63;7.88;;;15.50;62.50;;;;;;4898205;29;20115;-49
2021/11/25 03:32:42;;;;;;;9.75;7.18;;;15.80;90.40;;;;;;4898332;29;20115;-48
2021/11/25 03:35:09;;;;;;;11.57;7.28;;;15.50;62.50;;;;;;4897745;29;20021;-49
2021/11/25 03:37:36;;;;;;;9.07;6.95;;;15.70;63.30;;;;;;4898541;29;20024;-50
2021/11/25 03:40:03;;;;;;;9.13;6.85;;;15.70;90.30;;;;;;4898052;29;20515;-49
2021/11/25 03:42:29;;;;;;;9.40;7.10;;;15.70;62.50;;;;;;4897918;29;20505;-48
2021/11/25 03:44:55;;;;;;;9.90;6.78;;;15.70;90.20;;;;;;4898185;29;20024;-49
2021/11/25 03:47:20;;;;;;;9.82;7.28;;;15.50;62.50;;;;;;4897884;29;20417;-49
2021/11/25 03:49:46;;;;;;;9.50;7.00;;;15.50;90.40;;;;;;4897839;29;20029;-48
2021/11/25 03:52:11;;;;;;;8.18;6.85;;;15.70;90.60;;;;;;4898069;29;20024;-49
2021/11/25 03:54:37;;;;;;;8.88;7.05;;;15.50;62.60;;;;;;4897763;29;20029;-50
2021/11/25 03:57:03;;;;;;;10.05;7.03;;;15.70;90.30;;;;;;4897960;29;20103;-48
2021/11/25 03:59:28;;;;;;;8.52;6.15;;;15.60;62.70;;;;;;4897618;29;20040;-49
2021/11/25 04:01:54;;;;;;;9.45;6.90;;;15.60;62.70;;;;;;4897410;29;20100;-49
2021/11/25 04:04:20;;;;;;;10.23;7.28;;;15.50;62.80;;;;;;4897952;29;20051;-48
2021/11/25 04:06:45;;;;;;;10.13;7.70;;;15.80;90.30;;;;;;4897615;29;20499;-48
2021/11/25 04:09:12;;;;;;;9.93;6.78;;;15.70;90.30;;;;;;4897549;29;20107;-48
2021/11/25 04:11:38;;;;;;;10.45;7.32;;;15.70;90.30;;;;;;4897534;29;20029;-49
2021/11/25 04:14:04;;;;;;;12.15;7.82;;;15.60;90.30;;;;;;4897406;29;20060;-49
2021/11/25 04:16:30;;;;;;;9.55;7.20;;;15.70;62.80;;;;;;4897746;29;20261;-49
2021/11/25 04:18:57;;;;;;;10.15;7.43;;;15.30;62.60;;;;;;4897526;29;20391;-47
2021/11/25 04:21:23;;;;;;;11.52;7.68;;;15.70;90.40;;;;;;4897663;29;20035;-48
2021/11/25 04:23:48;;;;;;;10.15;7.45;;;15.40;62.70;;;;;;4897385;29;20552;-49
2021/11/25 04:26:14;;;;;;;10.32;7.22;;;15.70;90.30;;;;;;4897259;29;20029;-48
2021/11/25 04:28:40;;;;;;;9.80;7.30;;;15.40;62.70;;;;;;4897282;29;20040;-49
2021/11/25 04:36:35;;;;;;;13.45;7.88;;;16.20;63.10;;;;;;4897555;29;20044;-48
2021/11/25 04:39:01;;;;;;;10.98;7.78;;;15.40;62.80;;;;;;4897571;29;20033;-48
2021/11/25 04:41:26;;;;;;;11.15;7.72;;;15.50;62.80;;;;;;4897400;29;20028;-49
2021/11/25 04:43:52;;;;;;;12.45;8.07;;;15.40;62.80;;;;;;4897322;29;20024;-49
2021/11/25 04:46:17;;;;;;;11.55;7.75;;;15.40;90.40;;;;;;4896770;29;20067;-47
2021/11/25 04:48:43;;;;;;;11.10;7.88;;;15.40;62.80;;;;;;4896362;29;20040;-48
2021/11/25 04:51:09;;;;;;;9.93;6.95;;;15.60;90.40;;;;;;4896853;29;20076;-48
2021/11/25 04:53:34;;;;;;;10.85;7.90;;;15.30;62.70;;;;;;4896913;29;20029;-48
2021/11/25 04:56:00;;;;;;;11.23;8.18;;;15.30;62.80;;;;;;4897205;29;20048;-48
2021/11/25 04:58:26;;;;;;;12.85;8.00;;;15.70;90.60;;;;;;4896945;29;20041;-48
2021/11/25 05:00:52;;;;;;;12.43;8.23;;;15.30;63.40;;;;;;4897114;29;20033;-48
2021/11/25 05:03:17;;;;;;;13.63;8.35;;;15.50;90.40;;;;;;4896626;29;20049;-50
2021/11/25 05:05:44;;;;;;;10.32;7.65;;;15.40;90.80;;;;;;4896831;29;20028;-48
2021/11/25 05:08:10;;;;;;;11.30;8.02;;;15.30;62.80;;;;;;4896795;29;20507;-49
2021/11/25 05:10:36;;;;;;;10.68;8.05;;;15.30;62.80;;;;;;4896789;29;20028;-48
2021/11/25 05:13:03;;;;;;;11.88;8.48;;;15.20;90.50;;;;;;4896723;29;20037;-48
2021/11/25 05:15:28;;;;;;;14.50;8.82;;;15.50;90.70;;;;;;4896944;29;20449;-48
2021/11/25 05:17:55;;;;;;;12.00;8.50;;;15.40;90.60;;;;;;4896750;29;20020;-48
2021/11/25 05:20:21;;;;;;;12.15;7.75;;;15.50;90.60;;;;;;4896949;29;20436;-47
2021/11/25 05:22:46;;;;;;;12.13;8.65;;;15.30;62.90;;;;;;4897220;29;20060;-47
2021/11/25 05:25:15;;;;;;;12.15;8.57;;;15.20;62.90;;;;;;4897177;29;20032;-48
2021/11/25 05:27:40;;;;;;;11.23;8.30;;;15.20;62.80;;;;;;4896901;29;20031;-48
2021/11/25 05:30:08;;;;;;;12.95;8.20;;;15.20;62.80;;;;;;4896543;29;20115;-49
2021/11/25 05:32:34;;;;;;;14.40;8.50;;;15.50;90.80;;;;;;4896568;29;20029;-48
2021/11/25 05:35:00;;;;;;;11.55;7.97;;;15.40;90.70;;;;;;4896846;29;20043;-48
2021/11/25 05:37:26;;;;;;;13.93;8.82;;;15.50;90.70;;;;;;4896891;29;20024;-49
2021/11/25 05:39:51;;;;;;;11.30;7.85;;;15.40;91.10;;;;;;4896711;29;20029;-48
2021/11/25 05:42:18;;;;;;;11.90;8.32;;;15.20;62.80;;;;;;4896461;29;20088;-48
2021/11/25 05:44:45;;;;;;;12.63;8.77;;;15.20;62.80;;;;;;4896792;29;20033;-49
2021/11/25 05:47:10;;;;;;;12.88;8.55;;;15.30;62.90;;;;;;4896458;29;20046;-48
2021/11/25 05:49:36;;;;;;;13.27;8.73;;;15.40;90.80;;;;;;4896763;29;20419;-50
2021/11/25 05:52:02;;;;;;;12.48;8.88;;;15.20;62.90;;;;;;4896452;29;20021;-49
2021/11/25 05:54:27;;;;;;;11.13;7.82;;;15.50;90.80;;;;;;4896722;29;20403;-49
2021/11/25 05:56:53;;;;;;;12.93;8.80;;;15.20;63.00;;;;;;4896771;29;20552;-48
2021/11/25 05:59:18;;;;;;;12.68;8.80;;;15.40;90.80;;;;;;4898374;29;20111;-50
2021/11/25 06:01:44;;;;;;;14.20;9.35;;;15.20;63.10;;;;;;4899680;29;20468;-49
2021/11/25 06:04:09;;;;;;;11.75;8.05;;;15.20;63.10;;;;;;4899549;29;20096;-48
2021/11/25 06:06:35;;;;;;;11.02;7.72;;;15.50;91.20;;;;;;4899993;29;20056;-49
2021/11/25 06:09:01;;;;;;;12.63;8.52;;;15.50;91.30;;;;;;4899916;29;20441;-49
2021/11/25 06:11:27;;;;;;;12.38;7.75;;;15.60;84.60;;;;;;4899734;29;20059;-49
2021/11/25 06:13:53;;;;;;;13.45;8.20;;;15.40;63.80;;;;;;4899714;29;20036;-49
2021/11/25 06:16:19;;;;;;;10.43;7.43;;;15.50;91.30;;;;;;4899594;29;20499;-48
2021/11/25 06:18:45;;;;;;;10.07;7.32;;;16.00;91.30;;;;;;4899395;29;20170;-49
2021/11/25 06:21:10;;;;;;;11.73;7.47;;;15.70;63.40;;;;;;4899474;29;20033;-50
2021/11/25 06:23:36;;;;;;;11.55;6.90;;;16.20;91.30;;;;;;4899637;29;20020;-51
2021/11/25 06:26:02;;;;;;;10.10;7.40;;;16.00;63.70;;;;;;4899405;29;20484;-49
2021/11/25 06:28:28;;;;;;;10.50;7.00;;;16.00;91.30;;;;;;4899598;29;20028;-48
2021/11/25 06:30:53;;;;;;;10.57;6.90;;;16.00;63.70;;;;;;4899588;29;20099;-49
2021/11/25 06:33:19;;;;;;;10.88;6.50;;;16.00;63.50;;;;;;4899536;29;20048;-49
2021/11/25 06:35:45;;;;;;;11.23;7.00;;;16.10;91.20;;;;;;4899420;29;20503;-50
2021/11/25 06:38:10;;;;;;;9.90;6.32;;;16.40;91.10;;;;;;4899268;29;20075;-49
2021/11/25 06:40:37;;;;;;;8.45;6.43;;;16.40;90.90;;;;;;4899090;29;20103;-49
2021/11/25 06:43:06;;;;;;;8.65;6.03;;;16.50;91.10;;;;;;4899035;29;20056;-49
2021/11/25 06:45:32;;;;;;;9.80;6.50;;;16.20;63.40;;;;;;4899004;29;20523;-48
2021/11/25 06:47:57;;;;;;;8.43;6.07;;;16.30;63.40;;;;;;4899246;29;20117;-44
2021/11/25 06:50:24;;;;;;;10.68;6.30;;;16.60;90.80;;;;;;4899083;29;20052;-43
2021/11/25 06:52:50;;;;;;;11.25;6.75;;;16.60;90.90;;;;;;4899097;29;20039;-44
2021/11/25 06:55:17;;;;;;;9.05;6.03;;;17.20;63.60;;;;;;4899103;29;20025;-44
2021/11/25 06:57:48;;;;;;;9.82;6.75;;;16.60;90.90;;;;;;4898805;29;20032;-44
2021/11/25 07:00:15;;;;;;;9.23;6.65;;;16.40;62.90;;;;;;4898858;29;20047;-44
2021/11/25 07:02:42;;;;;;;9.23;6.63;;;16.50;91.00;;;;;;4898573;29;20139;-45
2021/11/25 07:05:08;;;;;;;11.90;7.22;;;16.70;91.00;;;;;;4898684;29;20024;-44
2021/11/25 07:07:35;;;;;;;10.73;7.20;;;16.60;62.80;;;;;;4898453;29;20050;-47
2021/11/25 07:10:01;;;;;;;10.57;7.32;;;16.40;62.80;;;;;;4897550;29;20511;-44
2021/11/25 07:12:26;;;;;;;11.98;8.05;;;16.40;62.90;;;;;;4899012;29;20052;-44
2021/11/25 07:14:52;;;;;;;13.35;9.18;;;16.60;91.10;;;;;;4898399;29;20068;-44
2021/11/25 07:17:18;;;;;;;14.90;8.63;;;18.90;63.40;;;;;;4898435;29;20032;-44
2021/11/25 07:19:44;;;;;;;10.63;7.80;;;16.50;91.00;;;;;;4898528;29;20037;-44
2021/11/25 07:22:09;;;;;;;13.02;7.82;;;16.50;91.40;;;;;;4898589;29;20017;-45
2021/11/25 07:24:35;;;;;;;14.07;8.55;;;16.10;91.20;;;;;;4898533;29;20076;-45
2021/11/25 07:27:03;;;;;;;11.48;7.70;;;16.50;91.20;;;;;;4898036;29;20036;-44
2021/11/25 07:29:29;;;;;;;14.05;8.23;;;16.50;91.30;;;;;;4898299;29;20108;-44
2021/11/25 07:31:54;;;;;;;16.40;9.90;;;16.30;91.30;;;;;;4898326;29;20052;-45
2021/11/25 07:34:20;;;;;;;16.40;9.10;;;16.10;91.40;;;;;;4898364;29;20056;-44
2021/11/25 07:36:46;;;;;;;14.82;8.55;;;16.30;91.40;;;;;;4898065;29;20468;-47
2021/11/25 07:39:11;;;;;;;12.73;8.80;;;16.20;63.50;;;;;;4897858;29;20041;-46
2021/11/25 07:41:40;;;;;;;18.65;8.82;;;16.20;64.10;;;;;;4898120;29;20024;-46
2021/11/25 07:44:07;;;;;;;14.95;10.05;;;16.40;91.30;;;;;;4897597;29;20033;-46
2021/11/25 07:46:33;;;;;;;17.67;10.02;;;16.10;90.90;;;;;;4898109;29;20056;-46
2021/11/25 07:49:00;;;;;;;12.85;8.95;;;16.20;91.00;;;;;;4897825;29;20376;-48
2021/11/25 07:51:25;;;;;;;12.70;8.40;;;16.10;63.50;;;;;;4898035;29;20028;-46
2021/11/25 07:53:51;;;;;;;16.35;9.45;;;16.10;63.60;;;;;;4898059;29;20032;-44
2021/11/25 07:56:16;;;;;;;13.68;8.85;;;16.10;63.40;;;;;;4897780;29;20032;-43
2021/11/25 07:58:42;;;;;;;17.15;9.48;;;17.00;63.90;;;;;;4897837;29;20448;-44
2021/11/25 08:01:08;;;;;;;16.10;9.20;;;;;;;;;;4897537;29;20024;-44
2021/11/25 08:03:34;;;;;;;14.88;8.98;;;16.30;62.80;;;;;;4897196;29;20496;-44
2021/11/25 08:05:59;;;;;;;15.43;9.20;;;16.30;90.70;;;;;;4897546;29;20036;-44
2021/11/25 08:08:25;;;;;;;14.95;8.77;;;16.20;63.00;;;;;;4897477;29;20028;-44
2021/11/25 08:10:51;;;;;;;13.48;9.30;;;16.50;90.60;;;;;;4897499;29;20040;-43
2021/11/25 08:13:16;;;;;;;14.07;8.75;;;16.40;63.20;;;;;;4897281;29;20032;-46
2021/11/25 08:15:42;;;;;;;13.20;8.55;;;16.20;62.90;;;;;;4897395;29;20031;-46
2021/11/25 08:18:08;;;;;;;13.65;8.98;;;16.50;90.90;;;;;;4897123;29;20036;-47
2021/11/25 08:20:33;;;;;;;14.80;9.00;;;16.50;62.90;;;;;;4897271;29;20033;-46
2021/11/25 08:22:59;;;;;;;14.02;8.60;;;16.60;90.50;;;;;;4880274;29;20056;-46
2021/11/25 08:25:26;;;;;;;12.73;8.32;;;16.30;62.70;;;;;;4897531;29;20059;-45
2021/11/25 08:27:56;;;;;;;12.05;8.45;;;16.50;62.10;;;;;;4897479;29;20025;-46
2021/11/25 08:30:25;;;;;;;12.95;8.95;;;16.50;62.10;;;;;;4897637;29;20028;-43
2021/11/25 08:32:51;;;;;;;12.93;8.52;;;16.30;62.70;;;;;;4897519;29;20119;-44
2021/11/25 08:35:17;;;;;;;13.27;8.30;;;16.60;90.70;;;;;;4897158;29;20032;-44
2021/11/25 08:37:42;;;;;;;11.88;8.38;;;16.30;62.60;;;;;;4897093;29;20080;-44
2021/11/25 08:40:12;;;;;;;13.63;8.30;;;16.50;90.60;;;;;;4897061;29;20041;-44
2021/11/25 08:42:38;;;;;;;14.23;8.32;;;16.60;90.60;;;;;;4897157;29;20036;-44
2021/11/25 08:45:06;;;;;;;12.93;8.30;;;16.70;64.60;;;;;;4897198;29;20439;-43
2021/11/25 08:47:31;;;;;;;14.23;7.80;;;16.50;62.60;;;;;;4896998;29;20496;-43
2021/11/25 08:49:57;;;;;;;10.77;7.60;;;16.60;84.90;;;;;;4896851;29;20036;-46
2021/11/25 08:52:23;;;;;;;12.93;8.25;;;16.50;90.90;;;;;;4896762;29;20060;-45
2021/11/25 08:54:48;;;;;;;11.10;7.63;;;16.60;90.90;;;;;;4897379;29;20032;-46
2021/11/25 08:57:14;;;;;;;12.82;8.13;;;16.40;90.90;;;;;;4896739;29;20084;-47
2021/11/25 08:59:40;;;;;;;11.65;7.75;;;16.30;62.60;;;;;;4896524;29;20052;-46
2021/11/25 09:02:05;;;;;;;12.43;7.65;;;16.60;91.20;;;;;;4896637;29;20017;-46
2021/11/25 09:04:31;;;;;;;10.80;7.60;;;16.50;62.70;;;;;;4896571;29;20037;-47
2021/11/25 09:06:57;;;;;;;10.73;7.22;;;16.60;91.10;;;;;;4896568;29;20033;-43
2021/11/25 09:09:23;;;;;;;10.90;7.85;;;16.70;91.10;;;;;;4896925;29;20177;-43
2021/11/25 09:11:49;;;;;;;11.48;7.53;;;16.60;91.00;;;;;;4896636;29;20103;-43
2021/11/25 09:14:15;;;;;;;11.98;7.88;;;16.70;91.00;;;;;;4896497;29;20033;-44
2021/11/25 09:16:41;;;;;;;10.82;7.28;;;16.40;62.40;;;;;;4896623;29;20040;-44
2021/11/25 09:19:07;;;;;;;11.23;7.55;;;16.60;91.10;;;;;;4896590;29;20047;-44
2021/11/25 09:21:32;;;;;;;10.20;7.38;;;16.70;91.00;;;;;;4896390;29;20028;-44
2021/11/25 09:24:00;;;;;;;12.85;7.45;;;16.60;91.10;;;;;;4896552;29;20025;-45
2021/11/25 09:26:25;;;;;;;13.18;7.88;;;16.60;91.20;;;;;;4896371;29;20027;-43
2021/11/25 09:28:51;;;;;;;10.52;6.30;;;16.80;91.10;;;;;;4896358;29;20036;-43
2021/11/25 09:31:18;;;;;;;10.25;7.20;;;16.80;91.10;;;;;;4896474;29;20072;-44
2021/11/25 09:33:44;;;;;;;9.32;6.55;;;16.40;91.10;;;;;;4897728;29;20032;-44
2021/11/25 09:36:10;;;;;;;10.07;6.93;;;16.50;91.40;;;;;;4899841;29;20353;-44
2021/11/25 09:38:35;;;;;;;9.23;6.70;;;16.70;91.30;;;;;;4899553;29;20040;-44
2021/11/25 09:41:01;;;;;;;10.95;6.95;;;16.80;91.40;;;;;;4899939;29;20032;-44
2021/11/25 09:43:27;;;;;;;10.13;6.68;;;16.80;91.40;;;;;;4900198;29;20032;-46
2021/11/25 09:45:54;;;;;;;11.88;7.22;;;16.70;61.70;;;;;;4900162;29;20025;-44
2021/11/25 09:48:22;;;;;;;10.98;6.57;;;16.70;91.20;;;;;;4899991;29;20029;-43
2021/11/25 09:50:52;;;;;;;10.68;7.35;;;16.60;91.30;;;;;;4899776;29;20028;-43
2021/11/25 09:53:20;;;;;;;10.85;6.88;;;16.80;91.00;;;;;;4900064;29;20445;-44
2021/11/25 09:55:48;;;;;;;8.30;6.10;;;16.70;90.90;;;;;;4899989;29;20036;-44
2021/11/25 09:58:16;;;;;;;8.43;6.10;;;16.70;74.40;;;;;;4899554;29;20092;-44
2021/11/25 10:00:44;;;;;;;10.57;6.18;;;16.80;62.10;;;;;;4899891;29;20025;-43
2021/11/25 10:03:15;;;;;;;9.38;5.88;;;16.50;90.50;;;;;;4899498;29;20052;-44
2021/11/25 10:05:41;;;;;;;7.45;5.80;;;16.70;90.50;;;;;;4899886;29;20388;-44
2021/11/25 10:08:27;;;;;;;7.97;5.72;;;16.70;90.70;;;;;;4899525;29;20024;-44
2021/11/25 10:10:59;;;;;;;8.23;6.35;;;16.90;90.90;;;;;;4900002;29;20032;-44
2021/11/25 10:13:34;;;;;;;7.00;4.95;;;16.90;75.30;;;;;;4899608;29;20393;-44
2021/11/25 10:15:59;;;;;;;8.38;5.63;;;16.60;91.00;;;;;;4899755;29;20028;-44
2021/11/25 10:18:25;;;;;;;9.63;5.55;;;16.80;90.90;;;;;;4882303;29;20041;-44
2021/11/25 10:20:52;;;;;;;7.75;5.35;;;16.90;61.40;;;;;;4899285;29;20060;-46
2021/11/25 10:23:29;;;;;;;8.88;5.18;;;17.00;91.10;;;;;;4899484;29;20044;-46
2021/11/25 10:25:57;;;;;;;6.30;4.55;;;16.90;91.10;;;;;;4899823;29;20060;-46
2021/11/25 10:28:32;;;;;;;7.40;4.75;;;16.90;91.10;;;;;;4899602;29;20024;-45
2021/11/25 10:31:04;;;;;;;6.93;5.03;;;17.00;91.20;;;;;;4899343;29;20496;-46
2021/11/25 10:34:10;;;;;;;6.57;4.43;;;16.90;61.20;;;;;;4899512;29;20120;-46
2021/11/25 10:36:57;;;;;;;7.00;4.95;;;16.90;72.00;;;;;;4899266;29;20088;-46
2021/11/25 10:39:34;;;;;;;6.60;4.47;;;16.90;83.40;;;;;;4898936;29;20475;-45
2021/11/25 10:42:04;;;;;;;6.60;4.60;;;16.70;91.00;;;;;;4899266;29;20167;-46
2021/11/25 10:44:33;;;;;;;6.53;4.07;;;16.90;90.90;;;;;;4899012;29;20025;-45
2021/11/25 10:47:12;;;;;;;6.85;4.20;;;16.80;83.50;;;;;;4899052;29;20040;-47
2021/11/25 10:49:39;;;;;;;5.00;3.77;;;16.70;91.10;;;;;;4898727;29;20115;-46
2021/11/25 10:52:12;;;;;;;5.70;3.95;;;16.90;91.00;;;;;;4898599;29;20032;-46
2021/11/25 10:54:50;;;;;;;5.30;3.72;;;16.70;61.40;;;;;;4898710;29;20448;-46
2021/11/25 10:57:17;;;;;;;7.50;3.97;;;16.70;91.00;;;;;;4898779;29;20028;-44
2021/11/25 10:59:47;;;;;;;6.63;4.28;;;16.70;91.10;;;;;;4898396;29;20032;-45
2021/11/25 11:02:28;;;;;;;5.68;3.70;;;16.70;91.10;;;;;;4898398;29;20080;-45
2021/11/25 11:04:55;;;;;;;6.20;4.07;;;16.60;61.70;;;;;;4898391;29;20092;-46
2021/11/25 11:07:38;;;;;;;6.32;3.67;;;16.50;91.40;;;;;;4898552;29;20059;-46
2021/11/25 11:10:28;;;;;;;6.35;3.72;;;16.70;91.60;;;;;;4898575;29;20502;-46
2021/11/25 11:15:46;;;;;;;5.45;3.70;;;16.60;91.80;;;;;;4898799;29;20068;-44
2021/11/25 11:20:47;;;;;;;4.32;3.30;;;16.60;91.70;;;;;;4898283;29;20471;-46
2021/11/25 11:23:13;;;;;;;5.32;3.33;;;16.60;91.40;;;;;;4898150;29;20115;-46
2021/11/25 11:25:41;;;;;;;4.80;3.35;;;16.60;91.20;;;;;;4898577;29;20039;-46
2021/11/25 11:28:09;;;;;;;4.88;3.33;;;16.60;91.20;;;;;;4898537;29;20435;-46
2021/11/25 11:30:35;;;;;;;5.30;3.35;;;16.60;91.20;;;;;;4898274;29;20064;-46
2021/11/25 11:33:05;;;;;;;3.22;2.53;;;16.60;91.30;;;;;;4898174;29;20025;-46
2021/11/25 11:35:31;;;;;;;4.05;2.88;;;;;;;;;;4897902;29;20047;-44
2021/11/25 11:38:03;;;;;;;5.05;3.13;;;16.60;91.60;;;;;;4897752;29;20491;-44
2021/11/25 11:40:32;;;;;;;4.70;3.28;;;16.40;91.90;;;;;;4897918;29;20107;-44
2021/11/25 11:43:00;;;;;;;4.65;3.03;;;16.50;62.10;;;;;;4898016;29;20032;-44
2021/11/25 11:45:29;;;;;;;3.45;2.80;;;16.60;65.90;;;;;;4897924;29;20039;-43
2021/11/25 11:47:58;;;;;;;5.60;3.17;;;16.50;91.70;;;;;;4897939;29;20040;-44
2021/11/25 11:50:33;;;;;;;3.15;2.78;;;16.50;61.70;;;;;;4897850;29;20480;-43
2021/11/25 11:53:02;;;;;;;4.72;2.70;;;16.60;91.80;;;;;;4897870;29;20028;-45
2021/11/25 11:55:43;;;;;;;4.05;2.55;;;16.50;61.70;;;;;;4880949;29;20033;-46
2021/11/25 11:58:34;;;;;;;3.72;2.63;;;16.70;91.70;;;;;;4897650;29;20025;-46
2021/11/25 12:01:12;;;;;;;3.42;2.25;;;16.50;62.00;;;;;;4897923;29;20040;-46
2021/11/25 12:03:41;;;;;;;5.18;2.65;;;16.50;91.90;;;;;;4897281;29;20566;-46
2021/11/25 12:06:08;;;;;;;5.47;2.78;;;16.60;92.50;;;;;;4897845;29;20053;-46
2021/11/25 12:08:34;;;;;;;3.83;2.30;;;;;;;;;;4897622;29;20060;-47
2021/11/25 12:11:04;;;;;;;3.58;2.35;;;16.40;61.60;;;;;;4897757;29;20111;-46
2021/11/25 12:13:54;;;;;;;3.92;2.33;;;16.40;61.90;;;;;;4897200;29;20075;-43
2021/11/25 12:16:19;;;;;;;5.35;2.60;;;16.50;91.30;;;;;;4897158;29;20112;-45
2021/11/25 12:18:54;;;;;;;3.60;2.30;;;16.50;91.10;;;;;;4897067;29;20132;-44
2021/11/25 12:21:43;;;;;;;4.43;2.58;;;16.40;70.40;;;;;;4897097;29;20035;-44
2021/11/25 12:24:14;;;;;;;5.53;2.65;;;16.50;90.90;;;;;;4897157;29;20037;-44
2021/11/25 12:26:56;;;;;;;3.47;2.17;;;16.30;90.40;;;;;;4897403;29;20432;-43
2021/11/25 12:29:58;;;;;;;2.60;2.00;;;16.20;62.40;;;;;;4897298;29;20032;-46
2021/11/25 12:32:48;;;;;;;4.38;2.38;;;16.50;62.50;;;;;;4897239;29;20084;-43
2021/11/25 12:35:26;;;;;;;3.25;2.17;;;16.50;90.50;;;;;;4897104;29;20400;-44
2021/11/25 12:38:01;;;;;;;5.07;2.42;;;16.70;90.30;;;;;;4896888;29;20061;-44
2021/11/25 12:40:27;;;;;;;6.35;1.92;;;16.70;90.50;;;;;;4897149;29;20089;-43
2021/11/25 12:43:02;;;;;;;2.80;1.65;;;16.50;90.50;;;;;;4897055;29;20060;-44
2021/11/25 12:45:44;;;;;;;6.13;2.22;;;16.70;62.00;;;;;;4897063;29;20021;-44
2021/11/25 12:48:31;;;;;;;4.35;2.20;;;16.80;90.10;;;;;;4896848;29;20084;-44
2021/11/25 12:51:09;;;;;;;5.20;1.90;;;16.70;61.80;;;;;;4896803;29;20063;-43
2021/11/25 12:53:53;;;;;;;4.22;1.80;;;16.70;62.00;;;;;;4896646;29;20033;-43